createdAt,value
2018-02-24T00:00:32.715Z,0.00
2018-02-24T00:01:32.707Z,0.00
2018-02-24T00:02:32.710Z,0.00
2018-02-24T00:03:32.729Z,0.00
2018-02-24T00:04:32.717Z,0.00
2018-02-24T00:05:32.717Z,0.00
2018-02-24T00:06:32.726Z,0.00
2018-02-24T00:07:32.722Z,0.00
2018-02-24T00:08:32.726Z,0.00
2018-02-24T00:09:32.730Z,0.00
2018-02-24T00:10:32.740Z,0.00
2018-02-24T00:11:32.737Z,0.00
2018-02-24T00:12:32.837Z,0.00
2018-02-24T00:13:32.757Z,0.00
2018-02-24T00:14:32.811Z,0.00
2018-02-24T00:15:32.760Z,0.00
2018-02-24T00:16:32.749Z,0.00
2018-02-24T00:17:32.743Z,0.00
2018-02-24T00:18:32.754Z,0.00
2018-02-24T00:19:32.749Z,0.00
2018-02-24T00:20:32.763Z,0.00
2018-02-24T00:21:32.764Z,0.00
2018-02-24T00:22:32.771Z,0.00
2018-02-24T00:23:32.766Z,0.00
2018-02-24T00:24:32.774Z,0.00
2018-02-24T00:25:32.778Z,0.00
2018-02-24T00:26:32.782Z,0.00
2018-02-24T00:27:32.786Z,0.00
2018-02-24T00:28:32.785Z,0.00
2018-02-24T00:29:32.784Z,0.00
2018-02-24T00:30:33.768Z,0.00
2018-02-24T00:31:32.789Z,0.00
2018-02-24T00:32:32.794Z,0.00
2018-02-24T00:33:32.799Z,0.00
2018-02-24T00:34:32.799Z,0.00
2018-02-24T00:35:32.811Z,0.00
2018-02-24T00:36:32.802Z,0.00
2018-02-24T00:37:32.813Z,0.00
2018-02-24T00:38:32.811Z,0.00
2018-02-24T00:39:32.828Z,0.00
2018-02-24T00:40:32.813Z,0.00
2018-02-24T00:41:32.826Z,0.00
2018-02-24T00:42:32.817Z,0.00
2018-02-24T00:43:32.832Z,0.00
2018-02-24T00:44:32.822Z,0.00
2018-02-24T00:45:32.827Z,0.00
2018-02-24T00:46:32.842Z,0.00
2018-02-24T00:47:32.832Z,0.00
2018-02-24T00:48:32.826Z,0.00
2018-02-24T00:49:32.832Z,0.00
2018-02-24T00:50:32.837Z,0.00
2018-02-24T00:51:32.845Z,0.00
2018-02-24T00:52:32.843Z,0.00
2018-02-24T00:53:32.911Z,0.00
2018-02-24T00:54:32.850Z,0.00
2018-02-24T00:55:32.857Z,0.00
2018-02-24T00:56:32.864Z,0.00
2018-02-24T00:57:32.868Z,0.00
2018-02-24T00:58:32.880Z,0.00
2018-02-24T00:59:32.863Z,0.00
2018-02-24T01:00:32.861Z,0.00
2018-02-24T01:01:32.870Z,0.00
2018-02-24T01:02:32.871Z,0.00
2018-02-24T01:03:32.876Z,0.00
2018-02-24T01:04:32.864Z,0.00
2018-02-24T01:05:32.876Z,0.00
2018-02-24T01:06:32.954Z,0.00
2018-02-24T01:07:32.883Z,0.00
2018-02-24T01:08:32.881Z,0.00
2018-02-24T01:09:32.882Z,0.00
2018-02-24T01:10:32.887Z,0.00
2018-02-24T01:11:32.947Z,0.00
2018-02-24T01:12:32.898Z,0.00
2018-02-24T01:13:32.893Z,0.00
2018-02-24T01:14:32.901Z,0.00
2018-02-24T01:15:32.904Z,0.00
2018-02-24T01:16:32.904Z,0.00
2018-02-24T01:17:32.906Z,0.00
2018-02-24T01:18:32.917Z,0.00
2018-02-24T01:19:32.914Z,0.00
2018-02-24T01:20:32.917Z,0.00
2018-02-24T01:21:32.917Z,0.00
2018-02-24T01:22:32.927Z,0.00
2018-02-24T01:23:32.928Z,0.00
2018-02-24T01:24:32.963Z,0.00
2018-02-24T01:25:32.929Z,0.00
2018-02-24T01:26:32.936Z,0.00
2018-02-24T01:27:32.948Z,0.00
2018-02-24T01:28:32.936Z,0.00
2018-02-24T01:29:32.936Z,0.00
2018-02-24T01:30:32.940Z,0.00
2018-02-24T01:31:32.941Z,0.00
2018-02-24T01:32:32.945Z,0.00
2018-02-24T01:33:32.936Z,0.00
2018-02-24T01:34:32.953Z,0.00
2018-02-24T01:35:32.953Z,0.00
2018-02-24T01:36:32.952Z,0.00
2018-02-24T01:37:32.961Z,0.00
2018-02-24T01:38:32.970Z,0.00
2018-02-24T01:39:32.960Z,0.00
2018-02-24T01:40:32.961Z,0.00
2018-02-24T01:41:32.977Z,0.00
2018-02-24T01:42:32.981Z,0.00
2018-02-24T01:43:32.971Z,0.00
2018-02-24T01:44:32.987Z,0.00
2018-02-24T01:45:32.980Z,0.00
2018-02-24T01:46:32.979Z,0.00
2018-02-24T01:47:32.989Z,0.00
2018-02-24T01:48:32.985Z,0.00
2018-02-24T01:49:32.990Z,0.00
2018-02-24T01:50:32.992Z,0.00
2018-02-24T01:51:32.980Z,0.00
2018-02-24T01:52:32.981Z,0.00
2018-02-24T01:53:32.984Z,0.00
2018-02-24T01:54:32.991Z,0.00
2018-02-24T01:55:32.998Z,0.00
2018-02-24T01:56:33.001Z,0.00
2018-02-24T01:57:33.000Z,0.00
2018-02-24T01:58:33.009Z,0.00
2018-02-24T01:59:33.013Z,0.00
2018-02-24T02:00:33.026Z,0.00
2018-02-24T02:01:33.011Z,0.00
2018-02-24T02:02:33.017Z,0.00
2018-02-24T02:03:33.014Z,0.00
2018-02-24T02:04:33.017Z,0.00
2018-02-24T02:05:33.022Z,0.00
2018-02-24T02:06:33.035Z,0.00
2018-02-24T02:07:33.040Z,0.00
2018-02-24T02:08:33.035Z,0.00
2018-02-24T02:09:33.063Z,0.00
2018-02-24T02:10:33.037Z,0.00
2018-02-24T02:11:33.042Z,0.00
2018-02-24T02:12:33.027Z,0.00
2018-02-24T02:13:33.031Z,0.00
2018-02-24T02:14:33.046Z,0.00
2018-02-24T02:15:33.039Z,0.00
2018-02-24T02:16:33.045Z,0.00
2018-02-24T02:17:33.041Z,0.00
2018-02-24T02:18:33.046Z,0.00
2018-02-24T02:19:33.055Z,0.00
2018-02-24T02:20:33.061Z,0.00
2018-02-24T02:21:33.738Z,0.00
2018-02-24T02:22:33.071Z,0.00
2018-02-24T02:23:33.079Z,0.00
2018-02-24T02:24:33.071Z,0.00
2018-02-24T02:25:33.067Z,0.00
2018-02-24T02:26:33.070Z,0.00
2018-02-24T02:27:33.070Z,0.00
2018-02-24T02:28:33.078Z,0.00
2018-02-24T02:29:33.094Z,0.00
2018-02-24T02:30:33.084Z,0.00
2018-02-24T02:31:33.082Z,0.00
2018-02-24T02:32:33.091Z,0.00
2018-02-24T02:33:33.082Z,0.00
2018-02-24T02:34:33.088Z,0.00
2018-02-24T02:35:33.080Z,0.00
2018-02-24T02:36:33.085Z,0.00
2018-02-24T02:37:33.089Z,0.00
2018-02-24T02:38:33.100Z,0.00
2018-02-24T02:39:33.102Z,0.00
2018-02-24T02:40:33.103Z,0.00
2018-02-24T02:41:33.115Z,0.00
2018-02-24T02:42:33.111Z,0.00
2018-02-24T02:43:33.108Z,0.00
2018-02-24T02:44:33.117Z,0.00
2018-02-24T02:45:33.113Z,0.00
2018-02-24T02:46:33.124Z,0.00
2018-02-24T02:47:33.118Z,0.00
2018-02-24T02:48:33.125Z,0.00
2018-02-24T02:49:33.108Z,0.00
2018-02-24T02:50:33.133Z,0.00
2018-02-24T02:51:33.130Z,0.00
2018-02-24T02:52:33.140Z,0.00
2018-02-24T02:53:33.124Z,0.00
2018-02-24T02:54:33.135Z,0.00
2018-02-24T02:55:33.141Z,0.00
2018-02-24T02:56:33.138Z,0.00
2018-02-24T02:57:33.147Z,0.00
2018-02-24T02:58:33.138Z,0.00
2018-02-24T02:59:33.141Z,0.00
2018-02-24T03:00:33.141Z,0.00
2018-02-24T03:01:33.149Z,0.00
2018-02-24T03:02:33.158Z,0.00
2018-02-24T03:03:33.148Z,0.00
2018-02-24T03:04:33.171Z,0.00
2018-02-24T03:05:33.167Z,0.00
2018-02-24T03:06:33.165Z,0.00
2018-02-24T03:07:33.160Z,0.00
2018-02-24T03:08:33.165Z,0.00
2018-02-24T03:09:33.169Z,0.00
2018-02-24T03:10:33.161Z,0.00
2018-02-24T03:11:33.169Z,0.00
2018-02-24T03:12:33.176Z,0.00
2018-02-24T03:13:33.171Z,0.00
2018-02-24T03:14:33.174Z,0.00
2018-02-24T03:15:33.180Z,0.00
2018-02-24T03:16:33.182Z,0.00
2018-02-24T03:17:33.183Z,0.00
2018-02-24T03:18:33.183Z,0.00
2018-02-24T03:19:33.185Z,0.00
2018-02-24T03:20:33.184Z,0.00
2018-02-24T03:21:33.195Z,0.00
2018-02-24T03:22:33.196Z,0.00
2018-02-24T03:23:33.189Z,0.00
2018-02-24T03:24:33.189Z,0.00
2018-02-24T03:25:33.196Z,0.00
2018-02-24T03:26:33.206Z,0.00
2018-02-24T03:27:33.217Z,0.00
2018-02-24T03:28:33.263Z,0.00
2018-02-24T03:29:33.205Z,0.00
2018-02-24T03:30:33.211Z,0.00
2018-02-24T03:31:33.253Z,0.00
2018-02-24T03:32:33.219Z,0.00
2018-02-24T03:33:33.214Z,0.00
2018-02-24T03:34:33.283Z,0.00
2018-02-24T03:35:33.222Z,0.00
2018-02-24T03:36:33.218Z,0.00
2018-02-24T03:37:33.217Z,0.00
2018-02-24T03:38:33.244Z,0.00
2018-02-24T03:39:33.233Z,0.00
2018-02-24T03:40:33.224Z,0.00
2018-02-24T03:41:33.232Z,0.00
2018-02-24T03:42:33.236Z,0.00
2018-02-24T03:43:33.235Z,0.00
2018-02-24T03:44:33.238Z,0.00
2018-02-24T03:45:33.231Z,0.00
2018-02-24T03:46:33.256Z,0.00
2018-02-24T03:47:33.242Z,0.00
2018-02-24T03:48:33.246Z,0.00
2018-02-24T03:49:33.248Z,0.00
2018-02-24T03:50:33.252Z,0.00
2018-02-24T03:51:33.253Z,0.00
2018-02-24T03:52:33.256Z,0.00
2018-02-24T03:53:33.260Z,0.00
2018-02-24T03:54:33.285Z,0.00
2018-02-24T03:55:33.254Z,0.00
2018-02-24T03:56:33.254Z,0.00
2018-02-24T03:57:33.263Z,0.00
2018-02-24T03:58:33.261Z,0.00
2018-02-24T03:59:33.298Z,0.00
2018-02-24T04:00:33.263Z,0.00
2018-02-24T04:01:33.282Z,0.00
2018-02-24T04:02:33.272Z,0.00
2018-02-24T04:03:33.275Z,0.00
2018-02-24T04:04:33.274Z,0.00
2018-02-24T04:05:33.278Z,0.00
2018-02-24T04:06:33.277Z,0.00
2018-02-24T04:07:33.281Z,0.00
2018-02-24T04:08:33.295Z,0.00
2018-02-24T04:09:34.237Z,0.00
2018-02-24T04:10:33.292Z,0.00
2018-02-24T04:11:33.301Z,0.00
2018-02-24T04:12:33.297Z,0.00
2018-02-24T04:13:33.302Z,0.00
2018-02-24T04:14:33.294Z,0.00
2018-02-24T04:15:33.304Z,0.00
2018-02-24T04:16:33.327Z,0.00
2018-02-24T04:17:33.309Z,0.00
2018-02-24T04:18:33.303Z,0.00
2018-02-24T04:19:33.310Z,0.00
2018-02-24T04:20:33.311Z,0.00
2018-02-24T04:21:33.299Z,0.00
2018-02-24T04:22:33.400Z,0.00
2018-02-24T04:23:33.316Z,0.00
2018-02-24T04:24:33.315Z,0.00
2018-02-24T04:25:33.326Z,0.00
2018-02-24T04:26:33.324Z,0.00
2018-02-24T04:27:33.327Z,0.00
2018-02-24T04:28:33.325Z,0.00
2018-02-24T04:29:33.328Z,0.00
2018-02-24T04:30:33.334Z,0.00
2018-02-24T04:31:33.334Z,0.00
2018-02-24T04:32:33.336Z,0.00
2018-02-24T04:33:33.338Z,0.00
2018-02-24T04:34:33.338Z,0.00
2018-02-24T04:35:33.342Z,0.00
2018-02-24T04:36:33.341Z,0.00
2018-02-24T04:37:33.340Z,0.00
2018-02-24T04:38:33.349Z,0.00
2018-02-24T04:39:33.353Z,0.00
2018-02-24T04:40:33.451Z,0.00
2018-02-24T04:41:33.355Z,0.00
2018-02-24T04:42:33.351Z,0.00
2018-02-24T04:43:33.350Z,0.00
2018-02-24T04:44:33.351Z,0.00
2018-02-24T04:45:33.364Z,0.00
2018-02-24T04:46:33.360Z,0.00
2018-02-24T04:47:33.364Z,0.00
2018-02-24T04:48:33.362Z,0.00
2018-02-24T04:49:33.364Z,0.00
2018-02-24T04:50:33.371Z,0.00
2018-02-24T04:51:33.364Z,0.00
2018-02-24T04:52:33.387Z,0.00
2018-02-24T04:53:33.371Z,0.00
2018-02-24T04:54:33.374Z,0.00
2018-02-24T04:55:33.377Z,0.00
2018-02-24T04:56:33.383Z,0.00
2018-02-24T04:57:33.380Z,0.00
2018-02-24T04:58:33.379Z,0.00
2018-02-24T04:59:33.392Z,0.00
2018-02-24T05:00:33.383Z,0.00
2018-02-24T05:01:33.387Z,0.00
2018-02-24T05:02:33.389Z,0.00
2018-02-24T05:03:33.409Z,0.00
2018-02-24T05:04:33.393Z,0.00
2018-02-24T05:05:33.385Z,0.00
2018-02-24T05:06:33.441Z,0.00
2018-02-24T05:07:33.401Z,0.00
2018-02-24T05:08:33.401Z,0.00
2018-02-24T05:09:33.403Z,0.00
2018-02-24T05:10:33.406Z,0.00
2018-02-24T05:11:33.402Z,0.00
2018-02-24T05:12:33.408Z,0.00
2018-02-24T05:13:33.403Z,0.00
2018-02-24T05:14:33.414Z,0.00
2018-02-24T05:15:33.419Z,0.00
2018-02-24T05:16:33.409Z,0.00
2018-02-24T05:17:33.418Z,0.00
2018-02-24T05:18:33.418Z,0.00
2018-02-24T05:19:33.421Z,0.00
2018-02-24T05:20:33.418Z,0.00
2018-02-24T05:21:33.417Z,0.00
2018-02-24T05:22:33.425Z,0.00
2018-02-24T05:23:33.427Z,0.00
2018-02-24T05:24:33.462Z,0.00
2018-02-24T05:25:33.432Z,0.00
2018-02-24T05:26:33.431Z,0.00
2018-02-24T05:27:33.442Z,0.00
2018-02-24T05:28:33.442Z,0.00
2018-02-24T05:29:33.445Z,0.00
2018-02-24T05:30:33.441Z,0.00
2018-02-24T05:31:33.444Z,0.00
2018-02-24T05:32:33.444Z,0.00
2018-02-24T05:33:33.446Z,0.00
2018-02-24T05:34:34.226Z,0.00
2018-02-24T05:35:33.452Z,0.00
2018-02-24T05:36:33.457Z,0.00
2018-02-24T05:37:33.473Z,0.00
2018-02-24T05:38:33.457Z,0.00
2018-02-24T05:39:33.461Z,0.00
2018-02-24T05:40:33.460Z,0.00
2018-02-24T05:41:33.459Z,0.00
2018-02-24T05:42:33.462Z,0.00
2018-02-24T05:43:33.466Z,0.00
2018-02-24T05:44:33.473Z,0.00
2018-02-24T05:45:33.466Z,0.00
2018-02-24T05:46:33.473Z,0.00
2018-02-24T05:47:34.220Z,0.00
2018-02-24T05:48:33.478Z,0.00
2018-02-24T05:49:33.484Z,0.00
2018-02-24T05:50:33.470Z,0.00
2018-02-24T05:51:33.492Z,0.00
2018-02-24T05:52:33.481Z,0.00
2018-02-24T05:53:33.471Z,0.00
2018-02-24T05:54:33.483Z,0.00
2018-02-24T05:55:33.483Z,0.00
2018-02-24T05:56:33.500Z,0.00
2018-02-24T05:57:33.495Z,0.00
2018-02-24T05:58:33.496Z,0.00
2018-02-24T05:59:33.494Z,0.00
2018-02-24T06:00:33.542Z,0.00
2018-02-24T06:01:33.498Z,0.00
2018-02-24T06:02:33.501Z,0.00
2018-02-24T06:03:33.497Z,0.00
2018-02-24T06:04:33.494Z,0.00
2018-02-24T06:05:33.503Z,0.00
2018-02-24T06:06:33.507Z,0.00
2018-02-24T06:07:33.510Z,0.00
2018-02-24T06:08:33.507Z,0.00
2018-02-24T06:09:33.511Z,0.00
2018-02-24T06:10:33.518Z,0.00
2018-02-24T06:11:33.515Z,0.00
2018-02-24T06:12:33.514Z,5.63
2018-02-24T06:13:33.517Z,5.63
2018-02-24T06:14:33.520Z,5.63
2018-02-24T06:15:33.516Z,5.63
2018-02-24T06:16:33.524Z,5.63
2018-02-24T06:17:33.532Z,5.63
2018-02-24T06:18:33.607Z,11.25
2018-02-24T06:19:33.524Z,11.25
2018-02-24T06:20:33.531Z,11.25
2018-02-24T06:21:33.531Z,11.25
2018-02-24T06:22:33.537Z,11.25
2018-02-24T06:23:33.534Z,11.25
2018-02-24T06:24:33.528Z,16.88
2018-02-24T06:25:33.537Z,16.88
2018-02-24T06:26:33.537Z,16.88
2018-02-24T06:27:33.546Z,16.88
2018-02-24T06:28:33.553Z,22.50
2018-02-24T06:29:33.547Z,22.50
2018-02-24T06:30:33.543Z,28.13
2018-02-24T06:31:33.600Z,28.13
2018-02-24T06:32:33.558Z,28.13
2018-02-24T06:33:33.550Z,33.75
2018-02-24T06:34:33.550Z,33.75
2018-02-24T06:35:33.558Z,39.38
2018-02-24T06:36:33.554Z,39.38
2018-02-24T06:37:33.556Z,45.00
2018-02-24T06:38:33.559Z,50.63
2018-02-24T06:39:33.608Z,50.63
2018-02-24T06:40:33.566Z,50.63
2018-02-24T06:41:33.551Z,56.25
2018-02-24T06:42:33.569Z,61.88
2018-02-24T06:43:33.565Z,61.88
2018-02-24T06:44:33.575Z,61.88
2018-02-24T06:45:33.568Z,67.50
2018-02-24T06:46:33.563Z,67.50
2018-02-24T06:47:33.584Z,67.50
2018-02-24T06:48:33.575Z,73.13
2018-02-24T06:49:33.572Z,73.13
2018-02-24T06:50:33.578Z,78.75
2018-02-24T06:51:33.572Z,78.75
2018-02-24T06:52:33.580Z,84.38
2018-02-24T06:53:33.582Z,90.00
2018-02-24T06:54:33.577Z,90.00
2018-02-24T06:55:33.585Z,95.63
2018-02-24T06:56:33.575Z,95.63
2018-02-24T06:57:33.585Z,101.25
2018-02-24T06:58:33.600Z,101.25
2018-02-24T06:59:33.584Z,101.25
2018-02-24T07:00:33.598Z,101.25
2018-02-24T07:01:33.613Z,101.25
2018-02-24T07:02:33.594Z,106.88
2018-02-24T07:03:33.610Z,106.88
2018-02-24T07:04:33.600Z,106.88
2018-02-24T07:05:33.603Z,112.50
2018-02-24T07:06:33.601Z,112.50
2018-02-24T07:07:33.620Z,118.13
2018-02-24T07:08:33.612Z,123.75
2018-02-24T07:09:33.608Z,129.38
2018-02-24T07:10:33.606Z,135.00
2018-02-24T07:11:33.611Z,140.63
2018-02-24T07:12:33.721Z,146.25
2018-02-24T07:13:33.625Z,146.25
2018-02-24T07:14:33.624Z,146.25
2018-02-24T07:15:33.626Z,146.25
2018-02-24T07:16:33.620Z,140.63
2018-02-24T07:17:33.628Z,146.25
2018-02-24T07:18:33.630Z,157.50
2018-02-24T07:19:33.636Z,163.13
2018-02-24T07:20:33.631Z,168.75
2018-02-24T07:21:33.636Z,174.38
2018-02-24T07:22:33.637Z,180.00
2018-02-24T07:23:33.640Z,185.63
2018-02-24T07:24:33.646Z,191.25
2018-02-24T07:25:33.646Z,196.88
2018-02-24T07:26:33.642Z,202.50
2018-02-24T07:27:33.648Z,208.13
2018-02-24T07:28:33.649Z,213.75
2018-02-24T07:29:33.646Z,213.75
2018-02-24T07:30:33.646Z,219.38
2018-02-24T07:31:33.649Z,225.00
2018-02-24T07:32:33.651Z,230.63
2018-02-24T07:33:33.655Z,247.50
2018-02-24T07:34:33.657Z,247.50
2018-02-24T07:35:33.670Z,247.50
2018-02-24T07:36:33.660Z,247.50
2018-02-24T07:37:33.667Z,230.63
2018-02-24T07:38:33.668Z,225.00
2018-02-24T07:39:33.673Z,230.63
2018-02-24T07:40:33.677Z,247.50
2018-02-24T07:41:33.675Z,258.75
2018-02-24T07:42:33.678Z,258.75
2018-02-24T07:43:33.683Z,275.63
2018-02-24T07:44:33.682Z,438.75
2018-02-24T07:45:33.683Z,680.63
2018-02-24T07:46:33.691Z,866.25
2018-02-24T07:47:33.706Z,945.00
2018-02-24T07:48:33.698Z,894.38
2018-02-24T07:49:33.693Z,815.63
2018-02-24T07:50:33.701Z,793.13
2018-02-24T07:51:33.701Z,855.00
2018-02-24T07:52:33.703Z,933.75
2018-02-24T07:53:33.708Z,1226.25
2018-02-24T07:54:33.718Z,1653.75
2018-02-24T07:55:33.728Z,1445.63
2018-02-24T07:56:33.739Z,1276.88
2018-02-24T07:57:33.721Z,1231.88
2018-02-24T07:58:33.729Z,1260.00
2018-02-24T07:59:33.728Z,978.75
2018-02-24T08:00:33.739Z,1305.00
2018-02-24T08:01:33.744Z,1715.63
2018-02-24T08:02:33.736Z,1783.13
2018-02-24T08:03:33.754Z,1884.38
2018-02-24T08:04:33.752Z,2025.00
2018-02-24T08:05:33.759Z,2013.75
2018-02-24T08:06:33.764Z,2047.50
2018-02-24T08:07:33.789Z,1996.88
2018-02-24T08:08:33.764Z,1861.88
2018-02-24T08:09:33.784Z,1726.88
2018-02-24T08:10:33.791Z,1710.00
2018-02-24T08:11:33.799Z,1845.00
2018-02-24T08:12:33.801Z,1828.13
2018-02-24T08:13:33.808Z,1783.13
2018-02-24T08:14:33.816Z,2025.00
2018-02-24T08:15:33.826Z,2238.75
2018-02-24T08:16:33.831Z,2233.13
2018-02-24T08:17:33.873Z,2013.75
2018-02-24T08:18:33.845Z,1935.00
2018-02-24T08:19:33.856Z,2103.75
2018-02-24T08:20:33.862Z,2238.75
2018-02-24T08:21:33.870Z,2340.00
2018-02-24T08:22:33.875Z,2531.25
2018-02-24T08:23:33.882Z,2542.50
2018-02-24T08:24:33.893Z,2418.75
2018-02-24T08:25:33.896Z,2317.50
2018-02-24T08:26:33.908Z,2356.88
2018-02-24T08:27:33.918Z,2390.63
2018-02-24T08:28:33.927Z,2486.25
2018-02-24T08:29:33.941Z,2390.63
2018-02-24T08:30:33.939Z,2289.38
2018-02-24T08:31:33.965Z,2362.50
2018-02-24T08:32:33.963Z,2536.88
2018-02-24T08:33:33.970Z,2570.63
2018-02-24T08:34:33.978Z,2677.50
2018-02-24T08:35:33.995Z,2407.50
2018-02-24T08:36:33.998Z,2334.38
2018-02-24T08:37:34.014Z,2295.00
2018-02-24T08:38:34.022Z,2306.25
2018-02-24T08:39:34.042Z,2266.88
2018-02-24T08:40:34.056Z,2379.38
2018-02-24T08:41:34.057Z,2446.88
2018-02-24T08:42:34.093Z,2491.88
2018-02-24T08:43:34.075Z,2430.00
2018-02-24T08:44:34.081Z,2531.25
2018-02-24T08:45:34.102Z,2514.38
2018-02-24T08:46:34.107Z,2531.25
2018-02-24T08:47:34.107Z,2722.50
2018-02-24T08:48:34.116Z,2480.63
2018-02-24T08:49:34.127Z,2581.88
2018-02-24T08:50:34.136Z,2649.38
2018-02-24T08:51:34.150Z,2559.38
2018-02-24T08:52:34.164Z,2638.13
2018-02-24T08:53:34.187Z,2446.88
2018-02-24T08:54:34.726Z,2610.00
2018-02-24T08:55:34.203Z,2716.88
2018-02-24T08:56:34.209Z,2688.75
2018-02-24T08:57:34.226Z,2750.63
2018-02-24T08:58:34.240Z,2784.38
2018-02-24T08:59:34.254Z,2806.88
2018-02-24T09:00:34.267Z,2812.50
2018-02-24T09:01:34.259Z,2835.00
2018-02-24T09:02:34.278Z,2840.63
2018-02-24T09:03:34.310Z,2913.75
2018-02-24T09:04:34.312Z,2835.00
2018-02-24T09:05:34.324Z,2756.25
2018-02-24T09:06:34.324Z,2700.00
2018-02-24T09:07:34.334Z,2784.38
2018-02-24T09:08:34.354Z,2958.75
2018-02-24T09:09:34.363Z,2880.00
2018-02-24T09:10:34.376Z,2913.75
2018-02-24T09:11:34.408Z,2812.50
2018-02-24T09:12:34.398Z,2778.75
2018-02-24T09:13:34.417Z,2840.63
2018-02-24T09:14:34.424Z,2913.75
2018-02-24T09:15:34.442Z,2880.00
2018-02-24T09:16:34.448Z,2840.63
2018-02-24T09:17:34.457Z,2863.13
2018-02-24T09:18:34.470Z,2863.13
2018-02-24T09:19:34.485Z,3009.38
2018-02-24T09:20:34.497Z,3065.63
2018-02-24T09:21:34.513Z,3116.25
2018-02-24T09:22:34.526Z,3116.25
2018-02-24T09:23:34.532Z,3031.88
2018-02-24T09:24:34.551Z,2936.25
2018-02-24T09:25:34.564Z,2925.00
2018-02-24T09:26:34.569Z,2953.13
2018-02-24T09:27:34.639Z,3099.38
2018-02-24T09:28:34.602Z,3211.88
2018-02-24T09:29:34.616Z,3189.38
2018-02-24T09:30:34.620Z,3318.75
2018-02-24T09:31:34.634Z,3138.75
2018-02-24T09:32:34.664Z,3172.50
2018-02-24T09:33:34.653Z,3414.38
2018-02-24T09:34:34.676Z,3268.13
2018-02-24T09:35:34.692Z,3121.88
2018-02-24T09:36:34.703Z,3223.13
2018-02-24T09:37:34.735Z,3386.25
2018-02-24T09:38:34.732Z,3335.63
2018-02-24T09:39:34.740Z,3425.63
2018-02-24T09:40:34.754Z,3431.25
2018-02-24T09:41:34.764Z,3234.38
2018-02-24T09:42:34.820Z,3375.00
2018-02-24T09:43:34.791Z,3420.00
2018-02-24T09:44:34.816Z,3549.38
2018-02-24T09:45:34.812Z,3436.88
2018-02-24T09:46:34.838Z,3431.25
2018-02-24T09:47:34.850Z,3369.38
2018-02-24T09:48:34.857Z,3285.00
2018-02-24T09:49:34.876Z,3465.00
2018-02-24T09:50:34.892Z,3459.38
2018-02-24T09:51:34.896Z,3453.75
2018-02-24T09:52:34.925Z,3273.75
2018-02-24T09:53:34.939Z,3060.00
2018-02-24T09:54:34.981Z,2851.88
2018-02-24T09:55:34.976Z,2885.63
2018-02-24T09:56:34.999Z,3020.63
2018-02-24T09:57:34.991Z,2947.50
2018-02-24T09:58:35.000Z,2790.00
2018-02-24T09:59:35.020Z,3110.63
2018-02-24T10:00:35.025Z,3037.50
2018-02-24T10:01:35.052Z,2970.00
2018-02-24T10:02:35.079Z,3076.88
2018-02-24T10:03:35.071Z,3195.00
2018-02-24T10:04:35.086Z,3307.50
2018-02-24T10:05:35.102Z,3211.88
2018-02-24T10:06:35.112Z,3178.13
2018-02-24T10:07:35.127Z,3352.50
2018-02-24T10:08:35.141Z,3431.25
2018-02-24T10:09:35.161Z,3397.50
2018-02-24T10:10:35.179Z,3172.50
2018-02-24T10:11:35.177Z,3127.50
2018-02-24T10:12:35.226Z,3082.50
2018-02-24T10:13:35.208Z,2981.25
2018-02-24T10:14:35.224Z,2953.13
2018-02-24T10:15:35.254Z,3093.75
2018-02-24T10:16:35.248Z,3026.25
2018-02-24T10:17:35.270Z,3223.13
2018-02-24T10:18:35.276Z,3251.25
2018-02-24T10:19:35.298Z,3301.88
2018-02-24T10:20:35.326Z,3633.75
2018-02-24T10:21:35.329Z,2745.00
2018-02-24T10:22:35.345Z,3830.63
2018-02-24T10:23:35.355Z,3903.75
2018-02-24T10:24:35.383Z,3678.75
2018-02-24T10:25:35.400Z,3875.63
2018-02-24T10:26:35.400Z,3993.75
2018-02-24T10:27:35.417Z,3926.25
2018-02-24T10:28:35.433Z,3774.38
2018-02-24T10:29:35.441Z,4016.25
2018-02-24T10:30:35.458Z,3903.75
2018-02-24T10:31:35.470Z,4066.88
2018-02-24T10:32:35.491Z,4134.38
2018-02-24T10:33:35.500Z,3988.13
2018-02-24T10:34:35.526Z,4010.63
2018-02-24T10:35:35.535Z,4151.25
2018-02-24T10:36:35.549Z,3999.38
2018-02-24T10:37:35.568Z,3943.13
2018-02-24T10:38:35.584Z,3960.00
2018-02-24T10:39:35.593Z,3858.75
2018-02-24T10:40:35.612Z,4117.50
2018-02-24T10:41:35.632Z,4010.63
2018-02-24T10:42:35.641Z,4078.13
2018-02-24T10:43:35.658Z,4134.38
2018-02-24T10:44:35.670Z,4038.75
2018-02-24T10:45:35.687Z,3971.25
2018-02-24T10:46:35.696Z,4156.88
2018-02-24T10:47:35.718Z,4027.50
2018-02-24T10:48:35.732Z,2908.13
2018-02-24T10:49:35.746Z,4156.88
2018-02-24T10:50:35.769Z,3425.63
2018-02-24T10:51:35.782Z,4072.50
2018-02-24T10:52:35.787Z,1850.63
2018-02-24T10:53:35.806Z,3830.63
2018-02-24T10:54:35.817Z,1203.75
2018-02-24T10:55:35.844Z,2160.00
2018-02-24T10:56:35.853Z,3886.88
2018-02-24T10:57:35.891Z,4123.13
2018-02-24T10:58:35.892Z,4213.13
2018-02-24T10:59:35.901Z,4359.38
2018-02-24T11:00:35.917Z,4325.63
2018-02-24T11:01:35.936Z,4258.13
2018-02-24T11:02:35.985Z,4263.75
2018-02-24T11:03:35.969Z,1873.13
2018-02-24T11:04:35.972Z,4646.25
2018-02-24T11:05:35.990Z,1496.25
2018-02-24T11:06:36.011Z,4421.25
2018-02-24T11:07:36.063Z,2986.88
2018-02-24T11:08:36.039Z,1080.00
2018-02-24T11:09:36.060Z,4207.50
2018-02-24T11:11:36.091Z,1220.63
2018-02-24T11:12:36.122Z,3487.50
2018-02-24T11:13:36.105Z,1558.13
2018-02-24T11:14:36.120Z,1929.38
2018-02-24T11:15:36.139Z,3571.88
2018-02-24T11:16:36.153Z,1321.88
2018-02-24T11:17:36.157Z,1068.75
2018-02-24T11:18:36.173Z,1406.25
2018-02-24T11:19:36.187Z,939.38
2018-02-24T11:20:36.208Z,826.88
2018-02-24T11:21:36.222Z,1147.50
2018-02-24T11:22:36.226Z,928.13
2018-02-24T11:23:36.247Z,1040.63
2018-02-24T11:24:36.280Z,922.50
2018-02-24T11:25:36.264Z,1265.63
2018-02-24T11:26:36.286Z,1029.38
2018-02-24T11:27:36.300Z,4044.38
2018-02-24T11:28:36.304Z,1282.50
2018-02-24T11:29:36.314Z,4421.25
2018-02-24T11:30:36.327Z,4573.13
2018-02-24T11:31:36.338Z,4381.88
2018-02-24T11:32:36.346Z,4516.88
2018-02-24T11:33:36.360Z,4471.88
2018-02-24T11:34:36.382Z,4100.63
2018-02-24T11:35:36.388Z,3993.75
2018-02-24T11:36:36.405Z,4477.50
2018-02-24T11:37:36.407Z,3785.63
2018-02-24T11:38:36.424Z,4815.00
2018-02-24T11:39:36.426Z,4449.38
2018-02-24T11:40:36.443Z,4460.63
2018-02-24T11:41:36.452Z,4606.88
2018-02-24T11:42:36.478Z,4201.88
2018-02-24T11:43:36.535Z,4275.00
2018-02-24T11:44:36.502Z,4601.25
2018-02-24T11:45:36.523Z,4483.13
2018-02-24T11:46:36.540Z,4612.50
2018-02-24T11:47:36.549Z,4696.88
2018-02-24T11:48:36.554Z,4668.75
2018-02-24T11:49:36.575Z,4556.25
2018-02-24T11:50:36.590Z,4826.25
2018-02-24T11:51:36.596Z,1164.38
2018-02-24T11:52:36.608Z,4815.00
2018-02-24T11:53:36.638Z,4100.63
2018-02-24T11:54:36.644Z,1096.88
2018-02-24T11:55:36.661Z,1501.88
2018-02-24T11:56:36.684Z,3453.75
2018-02-24T11:58:36.701Z,4353.75
2018-02-24T11:59:36.725Z,4505.63
2018-02-24T12:00:36.733Z,3346.88
2018-02-24T12:01:36.746Z,4410.00
2018-02-24T12:02:36.762Z,4657.50
2018-02-24T12:03:36.771Z,4348.13
2018-02-24T12:04:36.788Z,4398.75
2018-02-24T12:05:36.792Z,4725.00
2018-02-24T12:06:36.810Z,4488.75
2018-02-24T12:07:36.846Z,3633.75
2018-02-24T12:08:36.871Z,4050.00
2018-02-24T12:09:36.878Z,2649.38
2018-02-24T12:10:36.880Z,1333.13
2018-02-24T12:11:36.895Z,1113.75
2018-02-24T12:12:36.910Z,1108.13
2018-02-24T12:13:36.929Z,1040.63
2018-02-24T12:14:37.033Z,725.63
2018-02-24T12:15:36.942Z,871.88
2018-02-24T12:16:36.965Z,781.88
2018-02-24T12:17:36.996Z,843.75
2018-02-24T12:18:36.993Z,866.25
2018-02-24T12:19:37.002Z,1186.88
2018-02-24T12:20:37.021Z,703.13
2018-02-24T12:21:37.028Z,607.50
2018-02-24T12:22:37.049Z,601.88
2018-02-24T12:23:37.047Z,534.38
2018-02-24T12:24:37.804Z,534.38
2018-02-24T12:25:37.090Z,500.63
2018-02-24T12:26:37.100Z,528.75
2018-02-24T12:27:37.098Z,669.38
2018-02-24T12:28:37.114Z,871.88
2018-02-24T12:29:37.129Z,798.75
2018-02-24T12:30:37.141Z,658.13
2018-02-24T12:31:37.154Z,635.63
2018-02-24T12:32:37.159Z,596.25
2018-02-24T12:33:37.164Z,545.63
2018-02-24T12:34:37.176Z,585.00
2018-02-24T12:35:37.194Z,613.13
2018-02-24T12:36:37.193Z,663.75
2018-02-24T12:37:37.249Z,680.63
2018-02-24T12:38:37.215Z,1136.25
2018-02-24T12:39:37.228Z,635.63
2018-02-24T12:40:37.235Z,911.25
2018-02-24T12:41:37.238Z,3555.00
2018-02-24T12:42:37.271Z,1102.50
2018-02-24T12:43:37.331Z,855.00
2018-02-24T12:44:37.281Z,1665.00
2018-02-24T12:45:37.286Z,945.00
2018-02-24T12:46:37.325Z,1068.75
2018-02-24T12:47:37.327Z,3262.50